createdAt,value
2022-11-06T00:01:16.857Z,101965.89
2022-11-06T00:03:45.868Z,101969.85
2022-11-06T00:06:35.070Z,101970.99
2022-11-06T00:09:09.717Z,101977.76
2022-11-06T00:11:42.537Z,101978.87
2022-11-06T00:14:13.231Z,101978.87
2022-11-06T00:16:41.828Z,101986.20
2022-11-06T00:19:12.792Z,101972.56
2022-11-06T00:21:43.497Z,101964.91
2022-11-06T00:24:13.089Z,101963.21
2022-11-06T00:26:49.805Z,101973.64
2022-11-06T00:29:21.204Z,101977.59
2022-11-06T00:31:52.023Z,101974.75
2022-11-06T00:34:32.177Z,101973.87
2022-11-06T00:37:00.217Z,101971.58
2022-11-06T00:39:28.460Z,101969.00
2022-11-06T00:41:56.310Z,101963.60
2022-11-06T00:44:28.888Z,101955.95
2022-11-06T00:47:01.517Z,101944.61
2022-11-06T00:49:29.664Z,101946.27
2022-11-06T00:51:57.706Z,101944.02
2022-11-06T00:54:30.259Z,101940.84
2022-11-06T00:57:03.193Z,101938.91
2022-11-06T00:59:36.104Z,101950.20
2022-11-06T01:02:07.233Z,101941.70
2022-11-06T01:04:38.236Z,101935.48
2022-11-06T01:07:06.100Z,101925.55
2022-11-06T01:09:34.047Z,101908.51
2022-11-06T01:12:17.157Z,101915.31
2022-11-06T01:14:45.429Z,101916.16
2022-11-06T01:17:16.396Z,101923.55
2022-11-06T01:19:44.456Z,101926.91
2022-11-06T01:22:12.500Z,101924.95
2022-11-06T01:24:46.395Z,101919.82
2022-11-06T01:27:29.799Z,101915.28
2022-11-06T01:29:58.032Z,101914.66
2022-11-06T01:32:26.023Z,101918.02
2022-11-06T01:34:53.900Z,101914.33
2022-11-06T01:37:21.870Z,101912.59
2022-11-06T01:39:54.640Z,101917.66
2022-11-06T01:42:23.224Z,101908.54
2022-11-06T01:45:24.894Z,101909.39
2022-11-06T01:47:52.877Z,101913.09
2022-11-06T01:50:25.517Z,101913.94
2022-11-06T01:52:53.533Z,101923.59
2022-11-06T01:55:25.405Z,101922.47
2022-11-06T01:57:56.371Z,101915.64
2022-11-06T02:00:25.301Z,101921.59
2022-11-06T02:02:53.490Z,101918.81
2022-11-06T02:05:21.699Z,101914.23
2022-11-06T02:07:51.839Z,101902.88
2022-11-06T02:10:20.134Z,101903.12
2022-11-06T02:13:09.176Z,101905.66
2022-11-06T02:15:51.478Z,101915.05
2022-11-06T02:18:52.983Z,101906.22
2022-11-06T02:21:29.754Z,101909.33
2022-11-06T02:24:25.831Z,101906.16
2022-11-06T02:27:11.962Z,101889.97
2022-11-06T02:29:49.755Z,101885.13
2022-11-06T02:32:53.589Z,101877.19
2022-11-06T02:35:55.714Z,101863.00
2022-11-06T02:38:25.895Z,101853.61
2022-11-06T02:41:07.533Z,101856.13
2022-11-06T02:43:47.802Z,101856.46
2022-11-06T02:46:32.397Z,101857.02
2022-11-06T02:49:33.294Z,101850.18
2022-11-06T02:52:04.741Z,101852.17
2022-11-06T02:54:36.755Z,101848.52
2022-11-06T02:57:09.801Z,101848.19
2022-11-06T03:00:06.150Z,101842.13
2022-11-06T03:03:14.552Z,101838.18
2022-11-06T03:06:01.776Z,101828.50
2022-11-06T03:08:42.394Z,101831.91
2022-11-06T03:11:27.754Z,101828.73
2022-11-06T03:14:32.364Z,101826.45
2022-11-06T03:17:32.433Z,101829.55
2022-11-06T03:20:23.712Z,101822.09
2022-11-06T03:22:56.278Z,101819.34
2022-11-06T03:25:36.320Z,101810.20
2022-11-06T03:28:08.672Z,101817.26
2022-11-06T03:30:40.143Z,101812.97
2022-11-06T03:33:12.495Z,101817.74
2022-11-06T03:35:49.136Z,101814.31
2022-11-06T03:38:24.046Z,101823.37
2022-11-06T03:40:54.054Z,101819.38
2022-11-06T03:43:27.777Z,101823.89
2022-11-06T03:46:03.344Z,101828.77
2022-11-06T03:48:47.586Z,101820.52
2022-11-06T03:51:36.183Z,101806.01
2022-11-06T03:54:06.228Z,101801.40
2022-11-06T03:56:40.519Z,101798.29
2022-11-06T03:59:08.837Z,101806.50
2022-11-06T04:01:40.797Z,101805.35
2022-11-06T04:04:18.145Z,101811.89
2022-11-06T04:06:49.287Z,101798.81
2022-11-06T04:09:41.408Z,101797.96
2022-11-06T04:12:27.953Z,101793.98
2022-11-06T04:14:56.452Z,101802.41
2022-11-06T04:17:29.100Z,101798.45
2022-11-06T04:19:59.979Z,101794.14
2022-11-06T04:22:33.682Z,101798.98
2022-11-06T04:25:28.742Z,101792.21
2022-11-06T04:28:32.819Z,101782.86
2022-11-06T04:31:07.161Z,101777.17
2022-11-06T04:34:19.505Z,101782.23
2022-11-06T04:36:51.350Z,101776.48
2022-11-06T04:39:32.712Z,101764.81
2022-11-06T04:42:26.677Z,101758.56
2022-11-06T04:45:22.888Z,101744.93
2022-11-06T04:47:51.711Z,101750.06
2022-11-06T04:50:23.644Z,101746.92
2022-11-06T04:52:51.949Z,101751.44
2022-11-06T04:55:20.131Z,101752.62
2022-11-06T04:57:54.918Z,101748.04
2022-11-06T05:00:23.050Z,101752.05
2022-11-06T05:02:50.961Z,101747.58
2022-11-06T05:05:18.924Z,101749.28
2022-11-06T05:07:46.991Z,101747.35
2022-11-06T05:10:14.956Z,101739.66
2022-11-06T05:12:47.420Z,101742.51
2022-11-06T05:15:15.725Z,101739.41
2022-11-06T05:17:48.215Z,101724.23
2022-11-06T05:20:16.340Z,101718.28
2022-11-06T05:22:59.260Z,101726.20
2022-11-06T05:25:31.039Z,101723.65
2022-11-06T05:28:04.226Z,101730.48
2022-11-06T05:30:38.134Z,101727.54
2022-11-06T05:33:06.307Z,101728.42
2022-11-06T05:35:34.302Z,101725.80
2022-11-06T05:38:08.231Z,101723.25
2022-11-06T05:40:41.396Z,101707.36
2022-11-06T05:43:14.436Z,101712.73
2022-11-06T05:45:42.272Z,101709.26
2022-11-06T05:48:12.859Z,101710.14
2022-11-06T05:50:45.763Z,101710.34
2022-11-06T05:53:16.447Z,101713.18
2022-11-06T05:55:44.576Z,101717.11
2022-11-06T05:58:12.672Z,101714.26
2022-11-06T06:00:41.170Z,101719.95
2022-11-06T06:03:10.524Z,101716.55
2022-11-06T06:05:38.559Z,101721.39
2022-11-06T06:08:07.822Z,101713.70
2022-11-06T06:10:35.854Z,101706.05
2022-11-06T06:13:06.292Z,101710.01
2022-11-06T06:15:41.655Z,101719.95
2022-11-06T06:18:09.732Z,101720.34
2022-11-06T06:20:40.699Z,101705.89
2022-11-06T06:23:13.871Z,101704.13
2022-11-06T06:25:46.275Z,101710.01
2022-11-06T06:28:14.603Z,101697.52
2022-11-06T06:31:01.002Z,101706.58
2022-11-06T06:33:34.615Z,101711.13
2022-11-06T06:36:17.773Z,101704.35
2022-11-06T06:38:49.018Z,101693.20
2022-11-06T06:41:23.622Z,101695.76
2022-11-06T06:43:55.995Z,101703.96
2022-11-06T06:46:37.695Z,101700.59
2022-11-06T06:49:05.691Z,101705.11
2022-11-06T06:51:36.940Z,101698.60
2022-11-06T06:54:05.178Z,101690.88
2022-11-06T06:56:33.362Z,101702.82
2022-11-06T06:59:03.720Z,101714.69
2022-11-06T07:01:32.284Z,101717.23
2022-11-06T07:04:04.273Z,101715.87
2022-11-06T07:06:32.730Z,101715.30
2022-11-06T07:09:00.936Z,101703.34
2022-11-06T07:11:29.161Z,101691.96
2022-11-06T07:13:57.212Z,101697.65
2022-11-06T07:16:26.515Z,101701.64
2022-11-06T07:18:54.571Z,101696.57
2022-11-06T07:21:22.562Z,101690.88
2022-11-06T07:23:50.818Z,101688.04
2022-11-06T07:26:18.975Z,101680.06
2022-11-06T07:28:47.023Z,101678.63
2022-11-06T07:31:15.502Z,101674.60
2022-11-06T07:33:43.836Z,101667.24
2022-11-06T07:36:13.227Z,101660.94
2022-11-06T07:38:42.179Z,101655.96
2022-11-06T07:41:17.373Z,101653.38
2022-11-06T07:43:45.440Z,101646.19
2022-11-06T07:46:16.491Z,101644.23
2022-11-06T07:48:49.756Z,101640.76
2022-11-06T07:51:23.262Z,101639.87
2022-11-06T07:53:51.305Z,101626.96
2022-11-06T07:56:19.656Z,101625.79
2022-11-06T07:58:47.798Z,101623.20
2022-11-06T08:01:23.501Z,101616.27
2022-11-06T08:03:51.787Z,101612.77
2022-11-06T08:06:22.514Z,101605.28
2022-11-06T08:08:52.734Z,101591.29
2022-11-06T08:11:27.321Z,101590.34
2022-11-06T08:13:55.431Z,101578.02
2022-11-06T08:16:27.960Z,101570.95
2022-11-06T08:19:00.456Z,101566.51
2022-11-06T08:21:28.416Z,101563.56
2022-11-06T08:23:56.545Z,101566.64
2022-11-06T08:26:27.179Z,101563.37
2022-11-06T08:28:55.777Z,101571.38
2022-11-06T08:31:23.924Z,101557.78
2022-11-06T08:33:56.535Z,101547.58
2022-11-06T08:36:24.363Z,101541.66
2022-11-06T08:38:52.568Z,101538.81
2022-11-06T08:41:23.188Z,101541.52
2022-11-06T08:43:58.792Z,101538.06
2022-11-06T08:46:26.689Z,101527.77
2022-11-06T08:48:54.856Z,101528.58
2022-11-06T08:51:22.740Z,101517.95
2022-11-06T08:53:50.774Z,101512.16
2022-11-06T08:56:18.784Z,101517.82
2022-11-06T08:58:47.437Z,101523.45
2022-11-06T09:01:18.126Z,101520.77
2022-11-06T09:03:45.904Z,101513.15
2022-11-06T09:06:13.728Z,101509.23
2022-11-06T09:08:44.666Z,101511.35
2022-11-06T09:11:15.378Z,101513.21
2022-11-06T09:13:43.503Z,101515.93
2022-11-06T09:16:19.616Z,101525.24
2022-11-06T09:18:47.615Z,101524.20
2022-11-06T09:21:15.599Z,101520.50
2022-11-06T09:23:47.413Z,101519.85
2022-11-06T09:26:20.196Z,101528.94
2022-11-06T09:28:48.383Z,101534.95
2022-11-06T09:31:16.577Z,101529.27
2022-11-06T09:33:45.090Z,101534.95
2022-11-06T09:36:13.042Z,101533.55
2022-11-06T09:38:41.017Z,101536.07
2022-11-06T09:41:13.747Z,101530.05
2022-11-06T09:44:06.599Z,101517.07
2022-11-06T09:46:45.762Z,101508.70
2022-11-06T09:50:00.097Z,101490.42
2022-11-06T09:52:33.006Z,101494.91
2022-11-06T09:55:23.724Z,101496.96
2022-11-06T09:57:54.564Z,101493.53
2022-11-06T10:00:22.489Z,101496.57
2022-11-06T10:03:14.218Z,101496.80
2022-11-06T10:05:42.550Z,101495.98
2022-11-06T10:08:27.695Z,101499.55
2022-11-06T10:11:15.974Z,101506.25
2022-11-06T10:14:20.891Z,101501.84
2022-11-06T10:17:02.848Z,101501.37
2022-11-06T10:19:49.985Z,101494.41
2022-11-06T10:22:36.274Z,101474.83
2022-11-06T10:25:21.192Z,101460.08
2022-11-06T10:28:02.320Z,101448.60
2022-11-06T10:30:46.343Z,101432.68
2022-11-06T10:33:26.841Z,101418.10
2022-11-06T10:36:16.355Z,101407.34
2022-11-06T10:38:45.713Z,101397.83
2022-11-06T10:41:19.135Z,101405.05
2022-11-06T10:43:56.210Z,101415.65
2022-11-06T10:46:51.027Z,101428.79
2022-11-06T10:49:30.948Z,101434.68
2022-11-06T10:52:20.487Z,101438.86
2022-11-06T10:55:12.973Z,101432.06
2022-11-06T10:57:59.255Z,101424.21
2022-11-06T11:00:32.576Z,101421.47
2022-11-06T11:03:02.358Z,101433.59
2022-11-06T11:05:59.286Z,101427.58
2022-11-06T11:08:34.606Z,101429.05
2022-11-06T11:11:05.272Z,101428.70
2022-11-06T11:13:34.018Z,101426.27
2022-11-06T11:16:02.466Z,101419.57
2022-11-06T11:18:33.666Z,101411.49
2022-11-06T11:24:11.460Z,101394.82
2022-11-06T11:26:44.741Z,101395.27
2022-11-06T11:29:22.940Z,101390.18
2022-11-06T11:31:58.885Z,101383.02
2022-11-06T11:34:40.613Z,101373.89
2022-11-06T11:37:39.004Z,101381.91
2022-11-06T11:40:33.472Z,101377.66
2022-11-06T11:43:26.470Z,101362.62
2022-11-06T11:46:14.861Z,101362.91
2022-11-06T11:49:07.060Z,101363.10
2022-11-06T11:51:45.433Z,101358.27
2022-11-06T11:54:14.215Z,101356.17
2022-11-06T11:57:11.972Z,101369.68
2022-11-06T11:59:48.206Z,101362.77
2022-11-06T12:02:33.713Z,101357.02
2022-11-06T12:05:28.653Z,101339.20
2022-11-06T12:08:01.680Z,101336.91
2022-11-06T12:10:36.453Z,101325.05
2022-11-06T12:13:11.180Z,101323.64
2022-11-06T12:15:41.294Z,101307.55
2022-11-06T12:18:21.078Z,101316.64
2022-11-06T12:21:02.524Z,101304.84
2022-11-06T12:23:43.697Z,101313.54
2022-11-06T12:26:35.717Z,101311.87
2022-11-06T12:29:13.251Z,101311.61
2022-11-06T12:32:07.348Z,101316.71
2022-11-06T12:34:39.298Z,101314.35
2022-11-06T12:37:13.318Z,101313.47
2022-11-06T12:39:42.081Z,101312.59
2022-11-06T12:42:13.851Z,101300.75
2022-11-06T12:44:49.602Z,101304.19
2022-11-06T12:47:26.208Z,101296.77
2022-11-06T12:50:10.153Z,101296.11
2022-11-06T12:52:53.200Z,101290.26
2022-11-06T12:55:39.376Z,101282.05
2022-11-06T12:58:19.433Z,101285.29
2022-11-06T13:01:04.599Z,101286.50
2022-11-06T13:03:55.969Z,101286.70
2022-11-06T13:07:02.191Z,101271.85
2022-11-06T13:09:59.007Z,101265.96
2022-11-06T13:12:56.475Z,101263.51
2022-11-06T13:15:29.865Z,101264.75
2022-11-06T13:18:21.413Z,101261.88
2022-11-06T13:20:58.572Z,101278.68
2022-11-06T13:23:26.453Z,101275.55
2022-11-06T13:26:11.453Z,101273.58
2022-11-06T13:28:45.116Z,101267.44
2022-11-06T13:31:14.663Z,101272.34
2022-11-06T13:33:49.378Z,101268.80
2022-11-06T13:36:17.973Z,101257.56
2022-11-06T13:38:53.929Z,101269.37
2022-11-06T13:41:35.511Z,101260.27
2022-11-06T13:44:09.098Z,101257.46
2022-11-06T13:47:23.910Z,101261.71
2022-11-06T13:49:58.256Z,101264.59
2022-11-06T13:52:34.964Z,101256.25
2022-11-06T13:55:26.580Z,101266.20
2022-11-06T13:58:05.223Z,101268.91
2022-11-06T14:00:47.918Z,101266.39
2022-11-06T14:03:41.243Z,101263.58
2022-11-06T14:06:11.756Z,101266.26
2022-11-06T14:08:53.116Z,101271.00
2022-11-06T14:11:23.026Z,101274.86
2022-11-06T14:14:07.175Z,101284.11
2022-11-06T14:16:41.905Z,101300.42
2022-11-06T14:19:14.808Z,101293.40
2022-11-06T14:22:15.456Z,101294.09
2022-11-06T14:24:48.037Z,101279.30
2022-11-06T14:27:32.178Z,101264.03
2022-11-06T14:30:50.157Z,101252.91
2022-11-06T14:33:44.536Z,101251.91
2022-11-06T14:36:27.569Z,101258.97
2022-11-06T14:38:55.460Z,101272.73
2022-11-06T14:41:35.257Z,101271.72
2022-11-06T14:44:05.104Z,101272.57
2022-11-06T14:46:32.965Z,101271.88
2022-11-06T14:49:11.042Z,101275.94
2022-11-06T14:51:38.932Z,101276.10
2022-11-06T14:54:19.220Z,101281.49
2022-11-06T14:56:52.940Z,101284.50
2022-11-06T14:59:40.625Z,101272.57
2022-11-06T15:02:25.370Z,101274.07
2022-11-06T15:04:57.540Z,101278.29
2022-11-06T15:08:03.847Z,101280.28
2022-11-06T15:10:45.750Z,101273.58
2022-11-06T15:13:19.510Z,101284.17
2022-11-06T15:15:51.641Z,101285.52
2022-11-06T15:18:24.000Z,101275.45
2022-11-06T15:21:11.964Z,101280.97
2022-11-06T15:23:46.797Z,101278.59
2022-11-06T15:26:28.894Z,101278.78
2022-11-06T15:29:10.932Z,101275.70
2022-11-06T15:31:38.860Z,101284.27
2022-11-06T15:34:09.648Z,101279.40
2022-11-06T15:36:41.769Z,101279.92
2022-11-06T15:39:30.663Z,101281.23
2022-11-06T15:41:58.470Z,101272.17
2022-11-06T15:44:26.245Z,101278.20
2022-11-06T15:46:58.519Z,101287.09
2022-11-06T15:49:26.792Z,101286.73
2022-11-06T15:51:59.228Z,101283.20
2022-11-06T15:54:39.213Z,101284.70
2022-11-06T15:57:13.634Z,101298.95
2022-11-06T15:59:41.407Z,101299.90
2022-11-06T16:02:19.110Z,101301.24
2022-11-06T16:04:47.384Z,101312.46
2022-11-06T16:07:15.249Z,101303.40
2022-11-06T16:09:43.200Z,101299.02
2022-11-06T16:12:16.090Z,101302.35
2022-11-06T16:14:46.873Z,101290.62
2022-11-06T16:17:27.786Z,101291.44
2022-11-06T16:20:02.126Z,101275.34
2022-11-06T16:22:30.881Z,101287.41
2022-11-06T16:25:00.161Z,101282.38
2022-11-06T16:27:28.163Z,101287.02
2022-11-06T16:29:58.131Z,101286.37
2022-11-06T16:32:27.712Z,101291.20
2022-11-06T16:34:56.411Z,101284.83
2022-11-06T16:37:30.918Z,101298.17
2022-11-06T16:40:00.498Z,101307.00
2022-11-06T16:42:31.991Z,101296.89
2022-11-06T16:45:19.508Z,101304.28
2022-11-06T16:48:09.413Z,101304.09
2022-11-06T16:50:47.421Z,101313.60
2022-11-06T16:53:23.679Z,101315.83
2022-11-06T16:55:55.686Z,101314.65
2022-11-06T16:58:23.835Z,101323.18
2022-11-06T17:01:00.153Z,101327.86
2022-11-06T17:03:30.160Z,101322.98
2022-11-06T17:05:58.828Z,101326.68
2022-11-06T17:08:37.454Z,101324.66
2022-11-06T17:11:14.620Z,101328.15
2022-11-06T17:13:45.669Z,101319.32
2022-11-06T17:16:16.073Z,101327.34
2022-11-06T17:18:44.690Z,101325.02
2022-11-06T17:21:25.452Z,101326.98
2022-11-06T17:24:00.236Z,101328.15
2022-11-06T17:26:31.920Z,101334.37
2022-11-06T17:28:59.903Z,101340.38
2022-11-06T17:31:27.939Z,101341.55
2022-11-06T17:33:55.930Z,101343.75
2022-11-06T17:36:27.868Z,101349.96
2022-11-06T17:38:56.275Z,101350.62
2022-11-06T17:41:33.584Z,101354.60
2022-11-06T17:44:11.864Z,101347.25
2022-11-06T17:46:42.490Z,101341.55
2022-11-06T17:49:15.787Z,101351.10
2022-11-06T17:51:53.941Z,101354.70
2022-11-06T17:54:26.568Z,101353.59
2022-11-06T17:56:55.276Z,101357.52
2022-11-06T17:59:24.923Z,101353.46
2022-11-06T18:01:53.579Z,101375.86
2022-11-06T18:04:22.474Z,101383.28
2022-11-06T18:06:51.060Z,101385.63
2022-11-06T18:09:19.129Z,101379.38
2022-11-06T18:11:47.321Z,101385.44
2022-11-06T18:14:15.330Z,101378.38
2022-11-06T18:16:44.101Z,101378.63
2022-11-06T18:19:18.421Z,101387.01
2022-11-06T18:21:46.277Z,101379.29
2022-11-06T18:24:14.267Z,101381.28
2022-11-06T18:26:42.514Z,101387.33
2022-11-06T18:29:11.788Z,101393.84
2022-11-06T18:31:42.202Z,101391.84
2022-11-06T18:34:19.532Z,101397.20
2022-11-06T18:36:52.049Z,101404.40
2022-11-06T18:39:20.228Z,101391.02
2022-11-06T18:41:50.964Z,101387.33
2022-11-06T18:44:19.358Z,101387.62
2022-11-06T18:46:51.876Z,101387.10
2022-11-06T18:49:27.162Z,101407.67
2022-11-06T18:51:55.129Z,101403.78
2022-11-06T18:54:23.402Z,101409.83
2022-11-06T18:56:51.259Z,101421.70
2022-11-06T18:59:21.899Z,101423.40
2022-11-06T19:01:49.956Z,101425.72
2022-11-06T19:04:18.016Z,101440.70
2022-11-06T19:06:45.839Z,101434.97
2022-11-06T19:09:13.643Z,101431.60
2022-11-06T19:11:41.437Z,101447.00
2022-11-06T19:14:09.782Z,101460.60
2022-11-06T19:16:37.837Z,101467.11
2022-11-06T19:19:06.785Z,101485.48
2022-11-06T19:21:44.014Z,101483.36
2022-11-06T19:24:16.552Z,101485.72
2022-11-06T19:26:52.275Z,101482.87
2022-11-06T19:29:20.465Z,101488.00
2022-11-06T19:31:50.011Z,101498.04
2022-11-06T19:34:26.770Z,101492.68
2022-11-06T19:37:00.434Z,101484.44
2022-11-06T19:39:30.242Z,101487.19
2022-11-06T19:42:03.771Z,101493.17
2022-11-06T19:44:36.444Z,101502.69
2022-11-06T19:47:09.276Z,101490.65
2022-11-06T19:49:41.878Z,101493.17
2022-11-06T19:52:41.829Z,101479.80
2022-11-06T19:55:24.921Z,101475.25
2022-11-06T19:57:58.685Z,101491.17
2022-11-06T20:00:26.702Z,101490.85
2022-11-06T20:02:54.627Z,101489.18
2022-11-06T20:05:22.737Z,101505.40
2022-11-06T20:07:51.905Z,101508.77
2022-11-06T20:10:19.682Z,101521.19
2022-11-06T20:12:47.749Z,101529.43
2022-11-06T20:15:18.765Z,101531.75
2022-11-06T20:17:52.241Z,101526.39
2022-11-06T20:20:20.222Z,101539.44
2022-11-06T20:22:48.519Z,101532.08
2022-11-06T20:25:16.419Z,101530.28
2022-11-06T20:27:49.054Z,101532.57
2022-11-06T20:30:17.203Z,101527.96
2022-11-06T20:32:46.381Z,101531.30
2022-11-06T20:35:17.951Z,101541.85
2022-11-06T20:37:46.323Z,101541.85
2022-11-06T20:40:14.308Z,101548.07
2022-11-06T20:42:42.275Z,101540.09
2022-11-06T20:45:10.640Z,101548.07
2022-11-06T20:47:38.441Z,101542.05
2022-11-06T20:50:07.407Z,101549.96
2022-11-06T20:52:35.377Z,101541.95
2022-11-06T20:55:04.582Z,101535.09
2022-11-06T20:57:32.517Z,101542.70
2022-11-06T21:00:00.380Z,101538.68
2022-11-06T21:02:28.643Z,101538.03
2022-11-06T21:05:01.222Z,101548.82
2022-11-06T21:07:29.330Z,101559.09
2022-11-06T21:09:57.204Z,101551.23
2022-11-06T21:12:50.063Z,101550.59
2022-11-06T21:15:21.905Z,101537.24
2022-11-06T21:17:53.603Z,101550.84
2022-11-06T21:20:23.120Z,101554.18
2022-11-06T21:22:55.921Z,101555.55
2022-11-06T21:25:23.929Z,101555.55
2022-11-06T21:27:52.021Z,101546.70
2022-11-06T21:30:20.345Z,101548.39
2022-11-06T21:32:48.308Z,101539.50
2022-11-06T21:35:17.874Z,101539.50
2022-11-06T21:37:45.902Z,101545.74
2022-11-06T21:40:19.699Z,101540.58
2022-11-06T21:42:48.270Z,101548.79
2022-11-06T21:45:16.286Z,101544.80
2022-11-06T21:47:47.230Z,101541.59
2022-11-06T21:50:28.264Z,101546.46
2022-11-06T21:53:24.057Z,101547.31
2022-11-06T21:56:01.085Z,101542.25
2022-11-06T21:58:29.156Z,101537.73
2022-11-06T22:01:05.440Z,101544.70
2022-11-06T22:03:35.133Z,101540.16
2022-11-06T22:06:11.162Z,101539.63
2022-11-06T22:08:44.803Z,101543.00
2022-11-06T22:11:13.544Z,101541.01
2022-11-06T22:13:46.757Z,101534.79
2022-11-06T22:16:39.784Z,101531.95
2022-11-06T22:19:08.397Z,101530.25
2022-11-06T22:21:41.038Z,101534.43
2022-11-06T22:24:10.017Z,101542.34
2022-11-06T22:26:39.025Z,101535.71
2022-11-06T22:29:12.153Z,101532.54
2022-11-06T22:31:40.063Z,101531.03
2022-11-06T22:34:12.045Z,101515.34
2022-11-06T22:36:40.419Z,101517.89
2022-11-06T22:39:10.113Z,101524.07
2022-11-06T22:41:38.675Z,101521.75
2022-11-06T22:44:07.419Z,101528.29
2022-11-06T22:46:44.441Z,101529.66
2022-11-06T22:49:13.566Z,101535.55
2022-11-06T22:51:41.560Z,101531.75
2022-11-06T22:54:15.775Z,101545.65
2022-11-06T22:56:49.370Z,101544.83
2022-11-06T22:59:19.507Z,101554.73
2022-11-06T23:01:57.270Z,101555.59
2022-11-06T23:04:25.319Z,101559.25
2022-11-06T23:06:53.216Z,101561.80
2022-11-06T23:09:26.012Z,101567.48
2022-11-06T23:11:54.319Z,101576.55
2022-11-06T23:14:23.001Z,101578.57
2022-11-06T23:17:01.769Z,101582.23
2022-11-06T23:19:30.534Z,101581.94
2022-11-06T23:22:19.918Z,101579.91
2022-11-06T23:25:00.505Z,101574.23
2022-11-06T23:27:35.240Z,101587.30
2022-11-06T23:30:03.667Z,101587.95
2022-11-06T23:32:36.826Z,101589.13
2022-11-06T23:35:08.086Z,101591.78
2022-11-06T23:37:41.035Z,101592.60
2022-11-06T23:40:09.851Z,101600.61
2022-11-06T23:42:40.382Z,101597.27
2022-11-06T23:45:30.839Z,101605.38
2022-11-06T23:48:07.432Z,101601.82
2022-11-06T23:50:36.438Z,101607.31
2022-11-06T23:53:04.403Z,101612.28
2022-11-06T23:55:32.749Z,101607.21
2022-11-06T23:58:14.541Z,101609.66
